createdAt,value
2022-10-02T00:02:18.567Z,14.58
2022-10-02T00:05:05.234Z,14.57
2022-10-02T00:08:04.034Z,14.57
2022-10-02T00:10:47.572Z,14.53
2022-10-02T00:13:39.338Z,14.47
2022-10-02T00:16:23.843Z,14.41
2022-10-02T00:18:55.873Z,14.28
2022-10-02T00:21:40.388Z,14.17
2022-10-02T00:24:15.078Z,14.06
2022-10-02T00:26:48.019Z,13.96
2022-10-02T00:29:16.253Z,13.85
2022-10-02T00:31:56.338Z,13.76
2022-10-02T00:34:39.397Z,13.67
2022-10-02T00:37:21.114Z,13.54
2022-10-02T00:39:55.188Z,13.45
2022-10-02T00:42:47.576Z,13.35
2022-10-02T00:45:15.635Z,13.23
2022-10-02T00:48:17.728Z,13.19
2022-10-02T00:51:23.432Z,13.13
2022-10-02T00:54:19.927Z,13.08
2022-10-02T00:57:03.087Z,13.09
2022-10-02T00:59:44.961Z,13.06
2022-10-02T01:02:31.079Z,13.05
2022-10-02T01:05:02.619Z,13.05
2022-10-02T01:07:31.084Z,13.04
2022-10-02T01:09:59.418Z,13.03
2022-10-02T01:12:27.471Z,13.03
2022-10-02T01:14:55.482Z,12.99
2022-10-02T01:17:33.304Z,12.97
2022-10-02T01:20:06.092Z,12.93
2022-10-02T01:22:46.148Z,12.91
2022-10-02T01:25:14.332Z,12.90
2022-10-02T01:27:43.242Z,12.88
2022-10-02T01:30:19.876Z,12.86
2022-10-02T01:32:55.581Z,12.86
2022-10-02T01:35:31.777Z,12.85
2022-10-02T01:38:08.069Z,12.82
2022-10-02T01:40:41.088Z,12.80
2022-10-02T01:43:17.774Z,12.78
2022-10-02T01:46:01.892Z,12.76
2022-10-02T01:48:38.475Z,12.75
2022-10-02T01:51:30.913Z,12.72
2022-10-02T01:54:35.748Z,12.67
2022-10-02T01:57:06.575Z,12.63
2022-10-02T02:00:11.478Z,12.60
2022-10-02T02:02:51.492Z,12.59
2022-10-02T02:05:44.028Z,12.54
2022-10-02T02:08:49.380Z,12.53
2022-10-02T02:11:21.117Z,12.51
2022-10-02T02:14:17.729Z,12.51
2022-10-02T02:16:50.261Z,12.50
2022-10-02T02:19:43.089Z,12.48
2022-10-02T02:22:16.259Z,12.45
2022-10-02T02:25:08.994Z,12.41
2022-10-02T02:27:41.776Z,12.36
2022-10-02T02:30:12.825Z,12.32
2022-10-02T02:32:47.208Z,12.30
2022-10-02T02:35:22.486Z,12.28
2022-10-02T02:37:55.594Z,12.25
2022-10-02T02:40:31.329Z,12.24
2022-10-02T02:43:10.367Z,12.21
2022-10-02T02:46:02.602Z,12.16
2022-10-02T02:48:43.051Z,12.13
2022-10-02T02:51:17.300Z,12.09
2022-10-02T02:53:57.192Z,12.04
2022-10-02T02:56:28.582Z,11.99
2022-10-02T02:59:06.342Z,11.95
2022-10-02T03:01:34.542Z,11.92
2022-10-02T03:04:03.450Z,11.87
2022-10-02T03:06:45.315Z,11.85
2022-10-02T03:09:19.231Z,11.81
2022-10-02T03:11:47.351Z,11.76
2022-10-02T03:14:57.406Z,11.70
2022-10-02T03:17:43.399Z,11.59
2022-10-02T03:20:14.367Z,11.50
2022-10-02T03:22:51.517Z,11.46
2022-10-02T03:25:32.179Z,11.46
2022-10-02T03:28:43.597Z,11.44
2022-10-02T03:31:12.026Z,11.42
2022-10-02T03:33:41.193Z,11.37
2022-10-02T03:36:12.804Z,11.33
2022-10-02T03:38:42.911Z,11.27
2022-10-02T03:41:11.654Z,11.20
2022-10-02T03:43:39.885Z,11.17
2022-10-02T03:46:07.893Z,11.15
2022-10-02T03:48:38.774Z,11.15
2022-10-02T03:51:06.786Z,11.18
2022-10-02T03:53:35.643Z,11.23
2022-10-02T03:56:22.070Z,11.26
2022-10-02T03:58:54.195Z,11.28
2022-10-02T04:01:30.002Z,11.29
2022-10-02T04:04:07.067Z,11.28
2022-10-02T04:06:35.289Z,11.25
2022-10-02T04:09:11.074Z,11.22
2022-10-02T04:11:44.308Z,11.20
2022-10-02T04:14:30.038Z,11.19
2022-10-02T04:17:08.585Z,11.19
2022-10-02T04:19:43.907Z,11.20
2022-10-02T04:22:18.030Z,11.19
2022-10-02T04:24:52.725Z,11.21
2022-10-02T04:27:43.966Z,11.23
2022-10-02T04:30:17.290Z,11.26
2022-10-02T04:32:46.315Z,11.31
2022-10-02T04:35:33.567Z,11.36
2022-10-02T04:38:23.245Z,11.40
2022-10-02T04:41:46.338Z,11.43
2022-10-02T04:44:31.864Z,11.46
2022-10-02T04:47:21.434Z,11.50
2022-10-02T04:50:20.275Z,11.55
2022-10-02T04:53:12.653Z,11.58
2022-10-02T04:56:08.610Z,11.61
2022-10-02T04:58:42.501Z,11.64
2022-10-02T05:01:25.010Z,11.64
2022-10-02T05:04:24.033Z,11.67
2022-10-02T05:07:13.179Z,11.69
2022-10-02T05:09:52.651Z,11.71
2022-10-02T05:12:59.024Z,11.72
2022-10-02T05:15:45.024Z,11.73
2022-10-02T05:18:45.112Z,11.75
2022-10-02T05:21:41.004Z,11.79
2022-10-02T05:24:30.378Z,11.77
2022-10-02T05:27:30.828Z,11.80
2022-10-02T05:30:16.267Z,11.85
2022-10-02T05:33:22.726Z,11.86
2022-10-02T05:36:25.982Z,11.91
2022-10-02T05:39:02.099Z,11.92
2022-10-02T05:41:49.663Z,11.94
2022-10-02T05:44:30.986Z,11.98
2022-10-02T05:47:19.207Z,12.03
2022-10-02T05:49:56.028Z,12.04
2022-10-02T05:52:45.966Z,12.10
2022-10-02T05:55:19.620Z,12.16
2022-10-02T05:58:12.680Z,12.21
2022-10-02T06:01:03.207Z,12.29
2022-10-02T06:03:34.257Z,12.37
2022-10-02T06:06:16.916Z,12.45
2022-10-02T06:09:17.731Z,12.63
2022-10-02T06:11:52.804Z,13.02
2022-10-02T06:14:30.904Z,13.59
2022-10-02T06:17:24.401Z,14.04
2022-10-02T06:20:03.565Z,14.61
2022-10-02T06:22:43.176Z,15.17
2022-10-02T06:25:23.534Z,15.55
2022-10-02T06:28:03.905Z,15.52
2022-10-02T06:30:37.403Z,15.36
2022-10-02T06:33:11.359Z,15.29
2022-10-02T06:36:00.729Z,15.26
2022-10-02T06:38:31.995Z,15.02
2022-10-02T06:41:02.911Z,14.70
2022-10-02T06:44:09.927Z,14.68
2022-10-02T06:47:02.260Z,14.61
2022-10-02T06:49:39.719Z,14.27
2022-10-02T06:52:39.914Z,14.01
2022-10-02T06:55:26.602Z,13.91
2022-10-02T06:58:10.698Z,13.87
2022-10-02T07:00:56.219Z,13.86
2022-10-02T07:03:27.405Z,13.77
2022-10-02T07:06:34.583Z,13.79
2022-10-02T07:09:30.648Z,13.88
2022-10-02T07:12:22.279Z,13.92
2022-10-02T07:15:18.378Z,13.83
2022-10-02T07:18:05.317Z,13.79
2022-10-02T07:20:42.229Z,13.82
2022-10-02T07:23:21.553Z,14.21
2022-10-02T07:26:12.795Z,14.56
2022-10-02T07:28:52.610Z,14.80
2022-10-02T07:31:40.614Z,14.91
2022-10-02T07:34:43.483Z,14.96
2022-10-02T07:37:42.317Z,15.23
2022-10-02T07:40:42.609Z,15.45
2022-10-02T07:43:45.256Z,15.47
2022-10-02T07:46:42.438Z,15.46
2022-10-02T07:49:21.614Z,15.36
2022-10-02T07:52:16.337Z,15.16
2022-10-02T07:55:21.635Z,15.16
2022-10-02T07:58:14.041Z,15.26
2022-10-02T08:00:59.707Z,15.09
2022-10-02T08:03:29.856Z,15.07
2022-10-02T08:06:00.705Z,15.24
2022-10-02T08:08:44.072Z,15.38
2022-10-02T08:11:18.960Z,15.54
2022-10-02T08:14:12.927Z,15.51
2022-10-02T08:16:49.521Z,15.21
2022-10-02T08:19:24.911Z,15.04
2022-10-02T08:22:00.837Z,14.79
2022-10-02T08:24:46.940Z,14.54
2022-10-02T08:27:21.500Z,14.45
2022-10-02T08:29:57.655Z,14.31
2022-10-02T08:32:34.737Z,14.15
2022-10-02T08:35:14.563Z,13.96
2022-10-02T08:38:01.340Z,14.00
2022-10-02T08:40:43.504Z,13.99
2022-10-02T08:43:30.508Z,13.99
2022-10-02T08:46:29.201Z,13.92
2022-10-02T08:49:19.692Z,13.91
2022-10-02T08:52:10.163Z,13.88
2022-10-02T08:55:22.629Z,13.82
2022-10-02T08:58:19.273Z,13.77
2022-10-02T09:01:33.222Z,13.69
2022-10-02T09:04:20.688Z,13.85
2022-10-02T09:07:34.021Z,13.92
2022-10-02T09:10:20.956Z,14.01
2022-10-02T09:13:26.639Z,14.03
2022-10-02T09:16:17.665Z,14.11
2022-10-02T09:19:03.856Z,14.08
2022-10-02T09:21:50.432Z,14.13
2022-10-02T09:24:46.845Z,14.25
2022-10-02T09:27:21.100Z,14.38
2022-10-02T09:30:14.489Z,14.52
2022-10-02T09:33:01.309Z,14.66
2022-10-02T09:35:44.881Z,14.75
2022-10-02T09:38:21.349Z,14.90
2022-10-02T09:41:20.597Z,14.98
2022-10-02T09:44:10.494Z,15.04
2022-10-02T09:46:55.721Z,15.24
2022-10-02T09:50:00.757Z,15.48
2022-10-02T09:52:47.458Z,15.69
2022-10-02T09:55:50.246Z,15.90
2022-10-02T09:58:27.560Z,16.04
2022-10-02T10:01:23.417Z,16.21
2022-10-02T10:04:13.018Z,16.34
2022-10-02T10:06:43.979Z,16.19
2022-10-02T10:09:47.573Z,15.94
2022-10-02T10:12:57.761Z,15.98
2022-10-02T10:15:34.836Z,15.96
2022-10-02T10:18:23.568Z,16.01
2022-10-02T10:21:20.853Z,16.00
2022-10-02T10:24:26.306Z,16.06
2022-10-02T10:27:09.875Z,16.03
2022-10-02T10:30:07.211Z,15.96
2022-10-02T10:33:12.796Z,15.87
2022-10-02T10:35:56.305Z,15.87
2022-10-02T10:39:00.839Z,15.84
2022-10-02T10:41:53.486Z,15.87
2022-10-02T10:44:51.399Z,15.89
2022-10-02T10:47:43.995Z,16.01
2022-10-02T10:50:24.545Z,16.12
2022-10-02T10:53:14.230Z,16.17
2022-10-02T10:56:30.169Z,16.11
2022-10-02T10:59:18.247Z,16.14
2022-10-02T11:02:25.968Z,16.12
2022-10-02T11:05:24.845Z,16.16
2022-10-02T11:08:06.388Z,16.14
2022-10-02T11:11:10.164Z,16.14
2022-10-02T11:14:00.059Z,16.14
2022-10-02T11:17:02.332Z,16.11
2022-10-02T11:19:43.262Z,16.28
2022-10-02T11:22:29.855Z,16.27
2022-10-02T11:25:34.438Z,16.33
2022-10-02T11:28:22.030Z,16.34
2022-10-02T11:31:17.661Z,16.16
2022-10-02T11:34:05.489Z,16.03
2022-10-02T11:36:46.979Z,15.99
2022-10-02T11:39:53.945Z,16.04
2022-10-02T11:42:42.289Z,15.74
2022-10-02T11:45:37.371Z,15.61
2022-10-02T11:48:26.536Z,15.62
2022-10-02T11:51:11.752Z,15.74
2022-10-02T11:54:12.059Z,15.76
2022-10-02T11:57:02.167Z,15.73
2022-10-02T11:59:52.131Z,15.64
2022-10-02T12:02:26.516Z,15.70
2022-10-02T12:05:08.710Z,15.81
2022-10-02T12:07:55.825Z,15.92
2022-10-02T12:10:32.065Z,16.10
2022-10-02T12:13:06.266Z,16.23
2022-10-02T12:15:50.069Z,16.31
2022-10-02T12:18:27.123Z,16.26
2022-10-02T12:21:37.088Z,16.13
2022-10-02T12:24:38.665Z,16.05
2022-10-02T12:27:16.042Z,16.09
2022-10-02T12:30:04.318Z,16.09
2022-10-02T12:32:37.733Z,16.07
2022-10-02T12:35:08.955Z,16.11
2022-10-02T12:37:52.647Z,16.07
2022-10-02T12:40:41.974Z,16.16
2022-10-02T12:43:31.904Z,16.15
2022-10-02T12:46:21.794Z,16.24
2022-10-02T12:49:04.001Z,16.22
2022-10-02T12:51:47.564Z,16.24
2022-10-02T12:54:50.615Z,16.13
2022-10-02T12:57:56.282Z,16.17
2022-10-02T13:00:32.946Z,16.11
2022-10-02T13:03:02.176Z,16.09
2022-10-02T13:05:43.526Z,16.06
2022-10-02T13:08:24.191Z,16.02
2022-10-02T13:11:13.872Z,15.89
2022-10-02T13:14:01.832Z,15.89
2022-10-02T13:16:36.465Z,15.89
2022-10-02T13:19:17.901Z,15.88
2022-10-02T13:21:59.568Z,15.83
2022-10-02T13:24:51.858Z,15.80
2022-10-02T13:27:49.943Z,15.84
2022-10-02T13:30:21.101Z,15.84
2022-10-02T13:33:10.361Z,15.93
2022-10-02T13:35:45.988Z,15.99
2022-10-02T13:38:20.324Z,16.05
2022-10-02T13:41:06.685Z,16.01
2022-10-02T13:43:49.306Z,16.01
2022-10-02T13:46:52.035Z,16.07
2022-10-02T13:49:40.942Z,16.08
2022-10-02T13:52:31.355Z,16.08
2022-10-02T13:55:26.189Z,16.08
2022-10-02T13:58:06.265Z,16.14
2022-10-02T14:00:37.576Z,16.19
2022-10-02T14:03:06.025Z,16.22
2022-10-02T14:06:03.419Z,16.24
2022-10-02T14:08:58.115Z,16.21
2022-10-02T14:11:51.177Z,16.21
2022-10-02T14:14:27.337Z,16.15
2022-10-02T14:17:35.997Z,16.11
2022-10-02T14:20:16.492Z,16.09
2022-10-02T14:22:48.078Z,16.07
2022-10-02T14:25:43.082Z,16.03
2022-10-02T14:28:14.267Z,16.08
2022-10-02T14:31:08.093Z,16.05
2022-10-02T14:34:13.993Z,16.03
2022-10-02T14:37:16.849Z,15.97
2022-10-02T14:39:45.930Z,15.97
2022-10-02T14:42:38.679Z,15.98
2022-10-02T14:45:25.313Z,15.96
2022-10-02T14:48:36.098Z,15.91
2022-10-02T14:51:17.659Z,15.85
2022-10-02T14:54:04.295Z,15.85
2022-10-02T14:56:44.580Z,15.83
2022-10-02T14:59:51.202Z,15.78
2022-10-02T15:02:28.308Z,15.71
2022-10-02T15:05:07.700Z,15.63
2022-10-02T15:07:39.458Z,15.58
2022-10-02T15:10:22.565Z,15.55
2022-10-02T15:13:13.730Z,15.50
2022-10-02T15:16:11.121Z,15.46
2022-10-02T15:18:58.306Z,15.40
2022-10-02T15:21:44.393Z,15.35
2022-10-02T15:24:30.121Z,15.30
2022-10-02T15:27:16.759Z,15.26
2022-10-02T15:30:23.272Z,15.19
2022-10-02T15:33:10.948Z,15.14
2022-10-02T15:35:57.361Z,15.07
2022-10-02T15:38:32.180Z,15.00
2022-10-02T15:41:13.030Z,14.93
2022-10-02T15:44:08.364Z,14.84
2022-10-02T15:47:02.077Z,14.78
2022-10-02T15:50:08.515Z,14.71
2022-10-02T15:53:03.625Z,14.66
2022-10-02T15:55:45.988Z,14.57
2022-10-02T15:58:24.666Z,14.53
2022-10-02T16:01:01.831Z,14.49
2022-10-02T16:03:53.208Z,14.43
2022-10-02T16:06:44.291Z,14.39
2022-10-02T16:09:29.623Z,14.35
2022-10-02T16:12:18.151Z,14.30
2022-10-02T16:15:03.465Z,14.22
2022-10-02T16:17:46.866Z,14.13
2022-10-02T16:20:29.648Z,14.07
2022-10-02T16:23:10.783Z,13.97
2022-10-02T16:26:03.561Z,13.88
2022-10-02T16:28:41.072Z,13.78
2022-10-02T16:31:39.257Z,13.67
2022-10-02T16:34:16.203Z,13.58
2022-10-02T16:36:50.811Z,13.51
2022-10-02T16:39:51.641Z,13.47
2022-10-02T16:42:32.232Z,13.42
2022-10-02T16:45:18.878Z,13.39
2022-10-02T16:47:50.110Z,13.32
2022-10-02T16:50:26.450Z,13.25
2022-10-02T16:53:04.104Z,13.18
2022-10-02T16:55:41.270Z,13.10
2022-10-02T16:58:33.039Z,13.02
2022-10-02T17:01:07.760Z,12.95
2022-10-02T17:03:38.936Z,12.88
2022-10-02T17:06:18.283Z,12.78
2022-10-02T17:08:54.132Z,12.71
2022-10-02T17:11:31.425Z,12.63
2022-10-02T17:14:22.137Z,12.55
2022-10-02T17:16:59.993Z,12.49
2022-10-02T17:19:30.310Z,12.43
2022-10-02T17:22:04.142Z,12.36
2022-10-02T17:24:54.495Z,12.30
2022-10-02T17:27:54.741Z,12.25
2022-10-02T17:30:27.310Z,12.20
2022-10-02T17:33:08.156Z,12.15
2022-10-02T17:35:48.465Z,12.10
2022-10-02T17:38:25.174Z,12.04
2022-10-02T17:41:31.909Z,11.97
2022-10-02T17:44:05.062Z,11.89
2022-10-02T17:46:56.151Z,11.81
2022-10-02T17:49:33.009Z,11.72
2022-10-02T17:52:32.000Z,11.64
2022-10-02T17:55:47.847Z,11.56
2022-10-02T17:58:29.896Z,11.50
2022-10-02T18:01:22.276Z,11.45
2022-10-02T18:04:00.281Z,11.40
2022-10-02T18:06:39.779Z,11.35
2022-10-02T18:09:40.353Z,11.32
2022-10-02T18:12:56.349Z,11.31
2022-10-02T18:15:49.962Z,11.32
2022-10-02T18:18:38.504Z,11.32
2022-10-02T18:21:17.786Z,11.30
2022-10-02T18:24:00.676Z,11.28
2022-10-02T18:26:46.822Z,11.26
2022-10-02T18:29:52.029Z,11.23
2022-10-02T18:32:36.248Z,11.17
2022-10-02T18:35:07.841Z,11.12
2022-10-02T18:38:01.844Z,11.08
2022-10-02T18:40:48.696Z,11.04
2022-10-02T18:43:28.642Z,11.03
2022-10-02T18:46:19.204Z,11.02
2022-10-02T18:49:25.937Z,11.04
2022-10-02T18:52:05.399Z,11.06
2022-10-02T18:55:10.534Z,11.08
2022-10-02T18:58:09.509Z,11.07
2022-10-02T19:00:56.079Z,11.05
2022-10-02T19:03:46.795Z,11.02
2022-10-02T19:06:19.634Z,10.97
2022-10-02T19:09:11.365Z,10.91
2022-10-02T19:11:50.244Z,10.85
2022-10-02T19:14:25.954Z,10.78
2022-10-02T19:17:03.727Z,10.70
2022-10-02T19:19:33.080Z,10.63
2022-10-02T19:22:09.905Z,10.55
2022-10-02T19:24:41.039Z,10.47
2022-10-02T19:27:18.559Z,10.39
2022-10-02T19:29:58.893Z,10.33
2022-10-02T19:32:43.440Z,10.28
2022-10-02T19:35:18.585Z,10.25
2022-10-02T19:37:50.234Z,10.24
2022-10-02T19:40:23.985Z,10.25
2022-10-02T19:43:06.531Z,10.26
2022-10-02T19:45:41.240Z,10.27
2022-10-02T19:48:11.412Z,10.27
2022-10-02T19:50:52.920Z,10.26
2022-10-02T19:53:41.044Z,10.24
2022-10-02T19:56:15.980Z,10.21
2022-10-02T19:58:50.474Z,10.16
2022-10-02T20:01:21.586Z,10.12
2022-10-02T20:03:56.529Z,10.06
2022-10-02T20:06:28.132Z,10.01
2022-10-02T20:09:15.170Z,9.95
2022-10-02T20:11:54.592Z,9.89
2022-10-02T20:14:30.264Z,9.84
2022-10-02T20:17:12.896Z,9.86
2022-10-02T20:19:51.027Z,9.87
2022-10-02T20:22:25.047Z,9.87
2022-10-02T20:25:02.492Z,9.86
2022-10-02T20:27:41.466Z,9.84
2022-10-02T20:30:17.217Z,9.82
2022-10-02T20:33:14.445Z,9.81
2022-10-02T20:36:01.844Z,9.78
2022-10-02T20:38:36.114Z,9.78
2022-10-02T20:41:13.179Z,9.76
2022-10-02T20:43:46.684Z,9.72
2022-10-02T20:46:26.940Z,9.68
2022-10-02T20:49:08.810Z,9.64
2022-10-02T20:51:52.262Z,9.59
2022-10-02T20:55:08.603Z,9.52
2022-10-02T20:58:08.291Z,9.43
2022-10-02T21:00:59.368Z,9.34
2022-10-02T21:03:59.656Z,9.26
2022-10-02T21:06:30.632Z,9.19
2022-10-02T21:09:33.467Z,9.14
2022-10-02T21:12:36.769Z,9.09
2022-10-02T21:15:08.871Z,9.05
2022-10-02T21:18:08.311Z,9.04
2022-10-02T21:20:58.449Z,9.02
2022-10-02T21:23:54.702Z,9.02
2022-10-02T21:26:39.777Z,9.01
2022-10-02T21:29:15.518Z,9.01
2022-10-02T21:32:23.227Z,8.99
2022-10-02T21:35:08.597Z,8.96
2022-10-02T21:38:08.733Z,8.91
2022-10-02T21:40:58.249Z,8.84
2022-10-02T21:43:44.630Z,8.78
2022-10-02T21:46:34.350Z,8.72
2022-10-02T21:49:24.146Z,8.67
2022-10-02T21:52:02.421Z,8.64
2022-10-02T21:54:36.422Z,8.61
2022-10-02T21:57:38.704Z,8.61
2022-10-02T22:00:11.326Z,8.63
2022-10-02T22:02:59.370Z,8.68
2022-10-02T22:05:56.243Z,8.75
2022-10-02T22:08:39.457Z,8.83
2022-10-02T22:11:36.685Z,8.93
2022-10-02T22:14:15.080Z,9.02
2022-10-02T22:16:49.629Z,9.09
2022-10-02T22:19:48.372Z,9.14
2022-10-02T22:22:38.178Z,9.16
2022-10-02T22:25:16.619Z,9.18
2022-10-02T22:28:03.186Z,9.16
2022-10-02T22:30:50.013Z,9.11
2022-10-02T22:33:55.668Z,9.05
2022-10-02T22:36:58.980Z,8.99
2022-10-02T22:39:33.887Z,8.91
2022-10-02T22:42:29.658Z,8.85
2022-10-02T22:45:01.044Z,8.79
2022-10-02T22:47:47.263Z,8.74
2022-10-02T22:50:27.838Z,8.70
2022-10-02T22:53:04.926Z,8.68
2022-10-02T22:55:46.216Z,8.67
2022-10-02T22:58:31.477Z,8.67
2022-10-02T23:01:14.455Z,8.68
2022-10-02T23:03:54.254Z,8.70
2022-10-02T23:06:25.423Z,8.69
2022-10-02T23:09:13.782Z,8.69
2022-10-02T23:11:47.453Z,8.67
2022-10-02T23:14:28.497Z,8.66
2022-10-02T23:17:15.106Z,8.64
2022-10-02T23:20:12.257Z,8.60
2022-10-02T23:22:51.695Z,8.56
2022-10-02T23:25:25.055Z,8.50
2022-10-02T23:28:02.229Z,8.45
2022-10-02T23:30:35.595Z,8.39
2022-10-02T23:33:26.155Z,8.35
2022-10-02T23:36:13.956Z,8.32
2022-10-02T23:38:42.030Z,8.31
2022-10-02T23:41:36.976Z,8.28
2022-10-02T23:44:20.742Z,8.27
2022-10-02T23:46:49.065Z,8.28
2022-10-02T23:49:19.247Z,8.28
2022-10-02T23:51:55.323Z,8.29
2022-10-02T23:54:58.680Z,8.29
2022-10-02T23:57:38.941Z,8.27
